Bryce, UT

6:10 AM MDT on August 26, 2016 (GMT -0600)
Bryce Canyon

Weather History for KBCE - September, 2013

Change the Weather History Date:

Tuesday, September 10, 2013

  Actual Average Record
Temperature  
Mean Temperature 54 °F -  
Max Temperature 60 °F 72 °F 86 °F (1974)
Min Temperature 50 °F 40 °F 26 °F (1961)
Degree Days  
Heating Degree Days 12    
Growing Degree Days 4 (Base 50)    
Moisture  
Dew Point 51 °F    
Average Humidity 94    
Maximum Humidity 100    
Minimum Humidity 81    
Precipitation  
Precipitation 1.68 in - - ()
Sea Level Pressure  
Sea Level Pressure 30.05 in    
Wind  
Wind Speed 5 mph (NNW)    
Max Wind Speed 10 mph    
Max Gust Speed -    
Visibility 5 miles    
Events Rain    
Averages and records for this station are not official NWS values.
T = Trace of Precipitation, MM = Missing Value Source: NWS Daily Summary

Daily Weather History Graph

Daily Weather History Graph

Search for Another Location

Airport or City:

Trip Planner

Search our weather history database for the weather conditions in past years. The results will help you decide how hot, cold, wet, or windy it might be!

Date:

Astronomy

Sep. 10, 2013 Rise Set
Actual Time 7:06 AM MDT 7:43 PM MDT
Civil Twilight 6:40 AM MDT 8:10 PM MDT
Nautical Twilight 6:08 AM MDT 8:41 PM MDT
Astronomical Twilight 5:36 AM MDT 9:13 PM MDT
Moon 12:29 PM MDT (9/10) 10:56 PM MDT (9/10)
Length of Visible Light 13h 29m
Length of Day
12h 37m
Waxing Crescent, 29% of the Moon is Illuminated
Sep 10
Waxing Crescent
Sep 12
First Quarter
Sep 19
Full
Sep 26
Last Quarter
Oct 4
New

Hourly Weather History & Observations

Time (MDT) Temp. Dew Point Humidity Pressure Visibility Wind Dir Wind Speed Gust Speed Precip Events Conditions
12:53 AM 53.1 °F 48.0 °F 83% 29.81 in 10.0 mi NNW 6.9 mph - 0.01 in   Overcast
1:53 AM 53.1 °F 48.0 °F 83% 29.81 in 10.0 mi NNE 6.9 mph - 0.00 in   Overcast
2:53 AM 51.1 °F 48.0 °F 89% 29.83 in 8.0 mi North 6.9 mph - 0.01 in Rain Light Rain
3:46 AM 51.8 °F 48.2 °F 88% 30.13 in 8.0 mi NNE 6.9 mph - 0.01 in   Overcast
3:53 AM 51.1 °F 48.0 °F 89% 29.83 in 3.0 mi North 9.2 mph - 0.02 in Rain Rain
4:53 AM 50.0 °F 48.9 °F 96% 29.84 in 5.0 mi NNE 4.6 mph - 0.08 in Rain Rain
5:28 AM 50.0 °F 48.2 °F 94% 30.12 in 2.5 mi NNW 5.8 mph - 0.06 in Rain Heavy Rain
5:35 AM 50.0 °F 48.2 °F 94% 30.12 in 3.0 mi NNW 3.5 mph - 0.07 in Rain Light Rain
5:42 AM 50.0 °F 48.2 °F 94% 30.12 in 4.0 mi NNW 3.5 mph - 0.08 in Rain Light Rain
5:53 AM 50.0 °F 48.9 °F 96% 29.83 in 5.0 mi Calm Calm - 0.09 in Rain Light Rain
6:11 AM 50.0 °F 48.2 °F 94% 30.12 in 2.5 mi SSW 3.5 mph - 0.05 in Rain Heavy Rain
6:27 AM 50.0 °F 48.2 °F 94% 30.12 in 3.0 mi NW 4.6 mph - 0.11 in Rain Rain
6:53 AM 50.0 °F 48.9 °F 96% 29.84 in 4.0 mi NNW 5.8 mph - 0.15 in Rain Light Rain
7:44 AM 50.0 °F 48.2 °F 94% 30.14 in 2.0 mi NNE 4.6 mph - 0.07 in Rain Light Rain
7:53 AM 50.0 °F 48.9 °F 96% 29.87 in 2.5 mi NE 4.6 mph - 0.07 in Rain Light Rain
8:03 AM 50.0 °F 48.2 °F 94% 30.14 in 6.0 mi ENE 4.6 mph - 0.00 in Rain Light Rain
8:14 AM 50.0 °F 48.2 °F 94% 30.14 in 1.8 mi ENE 4.6 mph - 0.03 in Rain Rain
8:26 AM 50.0 °F 48.2 °F 94% 30.14 in 2.0 mi NE 5.8 mph - 0.06 in Rain Rain
8:36 AM 50.0 °F 48.2 °F 94% 30.14 in 1.5 mi NE 6.9 mph - 0.10 in Rain Heavy Rain
8:53 AM 50.0 °F 48.9 °F 96% 29.88 in 2.5 mi NE 6.9 mph - 0.16 in Rain Rain
9:00 AM 50.0 °F 50.0 °F 100% 30.15 in 4.0 mi Calm Calm - 0.01 in Rain Light Rain
9:25 AM 50.0 °F 50.0 °F 100% 30.16 in 2.5 mi NE 4.6 mph - 0.09 in Rain Heavy Rain
9:53 AM 50.0 °F 50.0 °F 100% 29.88 in 1.8 mi Calm Calm - 0.22 in Rain Heavy Rain
10:02 AM 50.0 °F 50.0 °F 100% 30.16 in 1.2 mi West 4.6 mph - 0.05 in Rain Heavy Rain
10:15 AM 50.0 °F 50.0 °F 100% 30.16 in 0.8 mi WSW 4.6 mph - 0.15 in Rain Heavy Rain
10:33 AM 50.0 °F 50.0 °F 100% 30.17 in 0.8 mi Calm Calm - 0.30 in Rain Heavy Rain
10:43 AM 50.0 °F 50.0 °F 100% 30.17 in 1.2 mi West 3.5 mph - 0.33 in Rain Rain
10:53 AM 51.1 °F 50.0 °F 96% 29.89 in 1.5 mi WNW 3.5 mph - 0.36 in Rain Rain
11:03 AM 51.8 °F 50.0 °F 94% 30.17 in 2.5 mi Calm Calm - 0.01 in Rain Rain
11:07 AM 51.8 °F 50.0 °F 94% 30.17 in 1.5 mi Calm Calm - 0.02 in Rain Light Rain
11:22 AM 51.8 °F 50.0 °F 94% 30.17 in 2.0 mi Calm Calm - 0.05 in Rain Rain
11:28 AM 51.8 °F 50.0 °F 94% 30.17 in 2.5 mi Calm Calm - 0.06 in Rain Light Rain
11:39 AM 51.8 °F 51.8 °F 100% 30.17 in 3.0 mi NW 3.5 mph - 0.07 in Rain Light Rain
11:53 AM 52.0 °F 51.1 °F 97% 29.89 in 3.0 mi WNW 3.5 mph - 0.09 in Rain Light Rain
12:00 PM 51.8 °F 50.0 °F 94% 30.16 in 2.0 mi West 4.6 mph - 0.01 in Rain Light Rain
12:11 PM 51.8 °F 51.8 °F 100% 30.17 in 1.2 mi WSW 3.5 mph - 0.06 in Rain Heavy Rain
12:20 PM 51.8 °F 51.8 °F 100% 30.17 in 0.8 mi West 3.5 mph - 0.14 in Rain Heavy Rain
12:34 PM 51.8 °F 51.8 °F 100% 30.16 in 2.0 mi West 4.6 mph - 0.20 in Rain Light Rain
12:39 PM 51.8 °F 51.8 °F 100% 30.16 in 5.0 mi West 6.9 mph - 0.20 in Rain Light Rain
12:53 PM 52.0 °F 51.1 °F 97% 29.88 in 9.0 mi West 6.9 mph - 0.21 in Rain Light Rain
1:07 PM 53.6 °F 51.8 °F 94% 30.16 in 1.8 mi West 6.9 mph - 0.02 in Rain Rain
1:09 PM 53.6 °F 51.8 °F 94% 30.16 in 2.0 mi WNW 5.8 mph - 0.02 in Rain Rain
1:28 PM 53.6 °F 51.8 °F 94% 30.16 in 1.5 mi WNW 3.5 mph - 0.07 in Rain Rain
1:39 PM 53.6 °F 51.8 °F 94% 30.16 in 2.0 mi WNW 3.5 mph - 0.09 in Rain Light Rain
1:50 PM 53.6 °F 51.8 °F 94% 30.16 in 1.8 mi Calm Calm - 0.11 in Rain Rain
1:53 PM 53.1 °F 52.0 °F 96% 29.88 in 2.0 mi Calm Calm - 0.11 in Rain Light Rain
2:02 PM 53.6 °F 51.8 °F 94% 30.15 in 6.0 mi North 3.5 mph - 0.01 in Rain Light Rain
2:53 PM 54.0 °F 52.0 °F 93% 29.88 in 8.0 mi ESE 5.8 mph - 0.03 in Rain Light Rain
3:09 PM 53.6 °F 53.6 °F 100% 30.16 in 3.0 mi SSE 6.9 mph - 0.02 in Rain Light Rain
3:17 PM 53.6 °F 53.6 °F 100% 30.16 in 2.5 mi SSE 5.8 mph - 0.04 in Rain Rain
3:24 PM 53.6 °F 53.6 °F 100% 30.16 in 10.0 mi South 5.8 mph - 0.04 in Rain Light Rain
3:36 PM 55.4 °F 53.6 °F 94% 30.15 in 6.0 mi SSW 8.1 mph - 0.05 in Rain Light Rain
3:53 PM 55.9 °F 53.1 °F 90% 29.86 in 10.0 mi South 4.6 mph - 0.05 in Rain Light Rain
4:06 PM 57.2 °F 53.6 °F 88% 30.15 in 10.0 mi Calm Calm - 0.00 in   Mostly Cloudy
4:37 PM 57.2 °F 51.8 °F 82% 30.14 in 10.0 mi West 3.5 mph - 0.00 in   Overcast
4:53 PM 57.9 °F 54.0 °F 87% 29.86 in 10.0 mi ESE 3.5 mph - 0.00 in Rain Light Rain
5:53 PM 57.9 °F 52.0 °F 81% 29.87 in 10.0 mi SE 5.8 mph - N/A   Overcast
6:53 PM 57.0 °F 53.1 °F 87% 29.87 in 10.0 mi East 5.8 mph - N/A   Mostly Cloudy
7:53 PM 55.0 °F 54.0 °F 96% 29.90 in 10.0 mi SE 8.1 mph - 0.00 in Rain Light Rain
8:04 PM 55.4 °F 53.6 °F 94% 30.18 in 8.0 mi SE 3.5 mph - 0.01 in Rain Light Rain
8:53 PM 54.0 °F 53.1 °F 97% 29.92 in 10.0 mi NE 10.4 mph - 0.01 in Rain Light Rain
9:53 PM 53.1 °F 51.1 °F 93% 29.93 in 10.0 mi NE 6.9 mph - 0.01 in   Overcast
10:53 PM 51.1 °F 48.9 °F 92% 29.94 in 10.0 mi NE 3.5 mph - N/A   Scattered Clouds
11:53 PM 51.1 °F 48.9 °F 92% 29.94 in 10.0 mi Calm Calm - N/A   Mostly Cloudy